Time;durP1;ratioP1;P1;durP2;ratioP2;P2;SDS_P1;SDS_P2;PMS_P1;PMS_P2;Temp;Humidity;BMP_temperature;BMP_pressure;BME280_temperature;BME280_humidity;BME280_pressure;Samples;Min_cycle;Max_cycle;Signal;HPM_P1;HPM_P2
2022/08/26 00:00:54;;;;;;;15.23;13.63;;;21.80;99.90;;;;;;5049293;28;20100;-68
2022/08/26 00:03:20;;;;;;;19.08;16.55;;;22.70;99.90;;;;;;5049124;28;20028;-68
2022/08/26 00:05:46;;;;;;;18.65;15.60;;;21.80;99.90;;;;;;5051849;28;20037;-68
2022/08/26 00:08:14;;;;;;;18.98;16.63;;;21.70;99.90;;;;;;5049181;28;20108;-69
2022/08/26 00:10:41;;;;;;;16.98;14.07;;;21.80;99.90;;;;;;5049128;28;20367;-68
2022/08/26 00:13:09;;;;;;;21.83;14.85;;;21.90;99.90;;;;;;5065756;28;20033;-69
2022/08/26 00:15:35;;;;;;;15.65;13.52;;;21.80;99.90;;;;;;5069438;28;20028;-70
2022/08/26 00:18:00;;;;;;;18.75;14.90;;;21.70;99.90;;;;;;5069243;28;20068;-71
2022/08/26 00:20:29;;;;;;;21.27;15.02;;;21.80;99.90;;;;;;5069364;28;20067;-71
2022/08/26 00:22:55;;;;;;;15.43;12.50;;;21.90;99.90;;;;;;5069643;28;20104;-71
2022/08/26 00:25:20;;;;;;;15.68;13.13;;;21.70;99.90;;;;;;5068600;28;20123;-70
2022/08/26 00:27:46;;;;;;;12.68;10.57;;;21.80;99.90;;;;;;5069549;28;20112;-70
2022/08/26 00:30:17;;;;;;;14.98;12.00;;;21.90;99.90;;;;;;5068888;28;20028;-70
2022/08/26 00:32:42;;;;;;;19.33;13.32;;;21.80;99.90;;;;;;5051086;28;20463;-70
2022/08/26 00:35:10;;;;;;;12.38;10.98;;;21.90;99.90;;;;;;5049413;28;20036;-70
2022/08/26 00:37:36;;;;;;;18.23;12.15;;;21.70;99.90;;;;;;5052316;28;20232;-70
2022/08/26 00:40:03;;;;;;;12.10;10.18;;;21.80;99.90;;;;;;5052622;28;20028;-70
2022/08/26 00:42:28;;;;;;;16.60;10.32;;;21.90;99.90;;;;;;5052862;28;20032;-70
2022/08/26 00:44:54;;;;;;;18.98;11.45;;;21.70;99.90;;;;;;5053171;28;20040;-69
2022/08/26 00:47:27;;;;;;;15.43;12.00;;;22.40;99.90;;;;;;5052809;28;20520;-69
2022/08/26 00:49:54;;;;;;;11.13;9.85;;;21.60;99.90;;;;;;5053104;28;20104;-70
2022/08/26 00:52:21;;;;;;;13.13;8.93;;;21.70;99.90;;;;;;5052590;28;20103;-71
2022/08/26 00:55:02;;;;;;;12.93;8.65;;;21.50;99.90;;;;;;5051228;28;20053;-70
2022/08/26 00:57:30;;;;;;;12.40;9.68;;;21.60;99.90;;;;;;5052488;28;20456;-69
2022/08/26 00:59:59;;;;;;;11.40;8.88;;;21.60;99.90;;;;;;5052764;28;20079;-68
2022/08/26 01:02:24;;;;;;;10.65;7.30;;;21.60;99.90;;;;;;5052230;28;20124;-69
2022/08/26 01:04:53;;;;;;;11.13;7.57;;;21.60;99.90;;;;;;5052833;28;20119;-69
2022/08/26 01:07:20;;;;;;;11.98;6.45;;;22.50;99.90;;;;;;5052395;28;20071;-69
2022/08/26 01:09:46;;;;;;;12.60;7.55;;;21.60;99.90;;;;;;5051938;28;20021;-69
2022/08/26 01:12:12;;;;;;;10.35;7.18;;;21.80;99.90;;;;;;5060700;28;20090;-68
2022/08/26 01:14:39;;;;;;;8.85;7.00;;;21.60;99.90;;;;;;5072513;28;20024;-69
2022/08/26 01:17:07;;;;;;;7.85;7.13;;;21.60;99.90;;;;;;5072516;28;20023;-68
2022/08/26 01:19:44;;;;;;;9.02;7.22;;;21.60;99.90;;;;;;5072336;28;20420;-69
2022/08/26 01:22:19;;;;;;;10.85;6.93;;;21.60;99.90;;;;;;5054071;28;20040;-69
2022/08/26 01:24:46;;;;;;;9.32;5.65;;;21.60;99.90;;;;;;5065769;28;20028;-68
2022/08/26 01:27:14;;;;;;;11.77;5.55;;;21.60;99.90;;;;;;5071946;28;20024;-69
2022/08/26 01:29:42;;;;;;;8.73;5.63;;;21.60;99.90;;;;;;5072863;28;20017;-69
2022/08/26 01:32:10;;;;;;;12.38;7.47;;;21.50;99.90;;;;;;5058611;28;20028;-68
2022/08/26 01:34:37;;;;;;;10.65;5.65;;;21.50;99.90;;;;;;5052275;28;20077;-69
2022/08/26 01:37:14;;;;;;;13.23;6.53;;;21.50;99.90;;;;;;5051873;28;20016;-68
2022/08/26 01:39:40;;;;;;;13.70;6.40;;;21.50;99.90;;;;;;5051606;28;20025;-69
2022/08/26 01:42:11;;;;;;;6.15;4.35;;;21.40;99.90;;;;;;5067183;28;20033;-69
2022/08/26 01:44:45;;;;;;;10.38;5.97;;;21.40;99.90;;;;;;5052122;28;20032;-68
2022/08/26 01:47:13;;;;;;;9.23;5.03;;;21.50;99.90;;;;;;5051356;28;20374;-69
2022/08/26 01:49:40;;;;;;;5.13;4.35;;;21.50;99.90;;;;;;5052310;28;20382;-69
2022/08/26 01:52:08;;;;;;;10.70;5.70;;;21.30;99.90;;;;;;5051284;28;20021;-69
2022/08/26 01:54:34;;;;;;;8.63;4.38;;;21.30;99.90;;;;;;5051547;28;20465;-69
2022/08/26 01:57:01;;;;;;;7.20;4.65;;;21.20;99.90;;;;;;5051662;28;20092;-69
2022/08/26 01:59:28;;;;;;;6.45;4.22;;;21.20;99.90;;;;;;5051587;28;20083;-69
2022/08/26 02:01:53;;;;;;;9.30;4.50;;;21.30;99.90;;;;;;5051300;28;20045;-69
2022/08/26 02:04:32;;;;;;;7.20;5.00;;;21.20;99.90;;;;;;5051096;28;20505;-69
2022/08/26 02:07:02;;;;;;;6.45;4.18;;;21.30;99.90;;;;;;5051308;28;20025;-69
2022/08/26 02:09:27;;;;;;;9.57;4.43;;;21.20;99.90;;;;;;5051072;28;20048;-69
2022/08/26 02:11:53;;;;;;;9.65;4.63;;;21.10;99.90;;;;;;5057537;28;20021;-70
2022/08/26 02:14:40;;;;;;;10.43;4.78;;;21.00;99.90;;;;;;5071305;28;20028;-69
2022/08/26 02:17:08;;;;;;;8.77;4.75;;;21.10;99.90;;;;;;5071463;28;20424;-70
2022/08/26 02:19:37;;;;;;;6.03;4.30;;;21.00;99.90;;;;;;5071085;28;20021;-70
2022/08/26 02:22:06;;;;;;;5.95;3.58;;;21.00;99.90;;;;;;5070743;28;20036;-69
2022/08/26 02:25:10;;;;;;;8.02;4.10;;;23.10;99.90;;;;;;5070013;28;20040;-70
2022/08/26 02:27:36;;;;;;;6.35;4.30;;;21.00;99.90;;;;;;5039724;28;20071;-69
2022/08/26 02:30:04;;;;;;;7.75;4.35;;;20.90;99.90;;;;;;5066022;28;20119;-70
2022/08/26 02:32:30;;;;;;;8.23;4.72;;;21.60;99.90;;;;;;5058344;28;20039;-70
2022/08/26 02:34:55;;;;;;;8.35;4.82;;;20.90;99.90;;;;;;5064645;28;20389;-69
2022/08/26 02:37:21;;;;;;;8.90;4.25;;;20.90;99.90;;;;;;5070024;28;20017;-70
2022/08/26 02:39:46;;;;;;;9.55;4.35;;;20.90;99.90;;;;;;5071090;28;20114;-69
2022/08/26 02:42:12;;;;;;;7.28;4.15;;;20.80;99.90;;;;;;5070406;28;20086;-70
2022/08/26 02:44:38;;;;;;;8.00;3.75;;;21.00;99.90;;;;;;5070942;28;20485;-69
2022/08/26 02:47:05;;;;;;;6.60;3.80;;;20.90;99.90;;;;;;5070670;28;20021;-70
2022/08/26 02:49:30;;;;;;;9.40;4.85;;;20.90;99.90;;;;;;5062883;28;20060;-70
2022/08/26 02:51:57;;;;;;;6.03;3.10;;;21.00;99.90;;;;;;5070393;28;20717;-70
2022/08/26 02:54:23;;;;;;;5.28;2.97;;;20.90;99.90;;;;;;5070045;28;20029;-69
2022/08/26 02:56:50;;;;;;;8.65;3.72;;;21.50;99.90;;;;;;5062693;28;20447;-70
2022/08/26 02:59:16;;;;;;;8.18;3.67;;;20.90;99.90;;;;;;5067437;28;20035;-69
2022/08/26 03:01:43;;;;;;;6.40;3.53;;;20.90;99.90;;;;;;5066008;28;20041;-70
2022/08/26 03:04:10;;;;;;;6.20;3.17;;;20.90;99.90;;;;;;5070288;28;20028;-70
2022/08/26 03:06:36;;;;;;;7.28;3.00;;;21.70;99.90;;;;;;5061994;28;20021;-70
2022/08/26 03:09:03;;;;;;;5.60;3.05;;;20.90;99.90;;;;;;5064614;28;20618;-70
2022/08/26 03:11:29;;;;;;;9.60;3.40;;;20.90;99.90;;;;;;5055977;28;20021;-70
2022/08/26 03:13:55;;;;;;;3.15;2.72;;;20.90;99.90;;;;;;5070545;28;20021;-70
2022/08/26 03:16:21;;;;;;;7.28;2.95;;;20.90;99.90;;;;;;5069780;28;20031;-70
2022/08/26 03:18:46;;;;;;;4.80;3.17;;;20.80;99.90;;;;;;5070147;28;20037;-70
2022/08/26 03:21:16;;;;;;;10.23;3.58;;;20.80;99.90;;;;;;5069248;28;20021;-71
2022/08/26 03:23:43;;;;;;;5.72;2.55;;;20.90;99.90;;;;;;5070080;28;20067;-71
2022/08/26 03:26:11;;;;;;;9.50;2.90;;;20.80;99.90;;;;;;5070237;28;20025;-71
2022/08/26 03:30:38;;;;;;;7.38;3.55;;;21.80;99.90;;;;;;5070028;28;20028;-71
2022/08/26 03:31:22;;;;;;;7.13;2.50;;;20.90;99.90;;;;;;5069512;28;20021;-71
2022/08/26 03:33:47;;;;;;;6.03;2.40;;;21.20;99.90;;;;;;5069650;28;20099;-71
2022/08/26 03:36:13;;;;;;;7.68;3.30;;;20.90;99.90;;;;;;5066176;28;20025;-71
2022/08/26 03:38:39;;;;;;;5.13;2.88;;;20.90;99.90;;;;;;5064692;28;20501;-71
2022/08/26 03:41:04;;;;;;;6.65;2.95;;;21.00;99.90;;;;;;5070066;28;20120;-71
2022/08/26 03:43:30;;;;;;;5.10;2.95;;;21.00;99.90;;;;;;5069585;28;20119;-71
2022/08/26 03:45:55;;;;;;;9.77;3.08;;;21.00;99.90;;;;;;5070106;28;20024;-71
2022/08/26 03:48:21;;;;;;;5.90;2.88;;;21.10;99.90;;;;;;5069110;28;20025;-70
2022/08/26 03:50:46;;;;;;;4.07;3.05;;;21.90;99.90;;;;;;5069703;28;20020;-70
2022/08/26 03:53:12;;;;;;;4.40;3.05;;;21.10;99.90;;;;;;5069438;28;20021;-71
2022/08/26 03:55:37;;;;;;;6.40;2.95;;;21.10;99.90;;;;;;5069751;28;20499;-71
2022/08/26 03:58:03;;;;;;;5.25;2.78;;;21.40;99.90;;;;;;5069796;28;20492;-71
2022/08/26 04:00:29;;;;;;;7.55;2.80;;;21.30;99.90;;;;;;5069313;28;20044;-71
2022/08/26 04:02:55;;;;;;;4.55;2.17;;;21.20;99.90;;;;;;5069152;28;20017;-71
2022/08/26 04:05:22;;;;;;;4.93;2.33;;;21.10;99.90;;;;;;5069420;28;20040;-69
2022/08/26 04:07:47;;;;;;;6.38;2.35;;;21.20;99.90;;;;;;5057081;28;20025;-68
2022/08/26 04:10:16;;;;;;;6.88;2.42;;;21.00;99.90;;;;;;5063177;28;20041;-69
2022/08/26 04:12:42;;;;;;;7.22;1.90;;;21.20;99.90;;;;;;5065527;28;20420;-69
2022/08/26 04:15:12;;;;;;;6.50;2.30;;;21.20;99.90;;;;;;5072206;28;20024;-69
2022/08/26 04:17:37;;;;;;;6.13;1.90;;;21.10;99.90;;;;;;5073396;28;20021;-69
2022/08/26 04:20:04;;;;;;;4.82;1.92;;;21.00;99.90;;;;;;5073501;28;20024;-69
2022/08/26 04:22:30;;;;;;;7.63;2.65;;;21.00;99.90;;;;;;5073446;28;20076;-69
2022/08/26 04:24:55;;;;;;;7.95;1.77;;;23.20;99.90;;;;;;5073437;28;20068;-69
2022/08/26 04:27:21;;;;;;;7.30;2.35;;;21.10;99.90;;;;;;5073237;28;20350;-69
2022/08/26 04:29:47;;;;;;;7.95;1.73;;;21.20;99.90;;;;;;5073495;28;20078;-68
2022/08/26 04:32:12;;;;;;;6.93;1.83;;;21.80;99.90;;;;;;5058479;28;20073;-69
2022/08/26 04:34:38;;;;;;;5.75;2.00;;;21.10;99.90;;;;;;5073425;28;20032;-69
2022/08/26 04:37:05;;;;;;;6.90;1.48;;;21.20;99.90;;;;;;5066328;28;20032;-69
2022/08/26 04:39:31;;;;;;;5.65;1.92;;;21.20;99.90;;;;;;5073022;28;20029;-69
2022/08/26 04:41:57;;;;;;;7.10;1.65;;;21.10;99.90;;;;;;5071802;28;20035;-70
2022/08/26 04:44:26;;;;;;;5.65;1.63;;;21.20;99.90;;;;;;5060034;28;20036;-69
2022/08/26 04:46:52;;;;;;;3.28;1.35;;;21.20;99.90;;;;;;5072766;28;20485;-69
2022/08/26 04:49:19;;;;;;;4.70;1.42;;;21.20;99.90;;;;;;5072664;28;20103;-69
2022/08/26 04:51:46;;;;;;;8.88;2.45;;;21.30;99.90;;;;;;5073080;28;20020;-69
2022/08/26 04:54:12;;;;;;;7.07;1.73;;;21.40;99.90;;;;;;5067523;28;20044;-69
2022/08/26 04:56:41;;;;;;;2.78;0.85;;;21.50;99.90;;;;;;5052939;28;20036;-69
2022/08/26 04:59:11;;;;;;;2.38;1.10;;;21.10;99.90;;;;;;5052629;28;20032;-69
2022/08/26 05:01:37;;;;;;;6.00;1.33;;;21.30;99.90;;;;;;5052049;28;20573;-69
2022/08/26 05:04:03;;;;;;;5.25;1.10;;;21.40;99.90;;;;;;5047673;28;20163;-68
2022/08/26 05:06:29;;;;;;;5.85;1.13;;;21.30;99.90;;;;;;5051009;28;20029;-69
2022/08/26 05:08:55;;;;;;;2.88;1.27;;;22.10;99.90;;;;;;5052748;28;20036;-69
2022/08/26 05:11:21;;;;;;;2.78;1.30;;;21.50;99.90;;;;;;5067576;28;20028;-69
2022/08/26 05:13:47;;;;;;;7.35;1.15;;;22.20;99.90;;;;;;5063565;28;20037;-69
2022/08/26 05:16:14;;;;;;;6.68;1.40;;;21.40;99.90;;;;;;5051869;28;20032;-70
2022/08/26 05:18:42;;;;;;;4.70;1.23;;;21.50;99.90;;;;;;5052283;28;20035;-70
2022/08/26 05:21:14;;;;;;;2.97;1.13;;;21.40;99.90;;;;;;5052296;28;20037;-70
2022/08/26 05:23:39;;;;;;;3.65;1.13;;;21.40;99.90;;;;;;5066124;28;20037;-70
2022/08/26 05:26:07;;;;;;;7.07;1.10;;;21.00;99.90;;;;;;5066286;28;20035;-70
2022/08/26 05:28:33;;;;;;;5.50;1.63;;;21.40;99.90;;;;;;5054242;28;20029;-71
2022/08/26 05:30:58;;;;;;;7.20;1.20;;;21.40;99.90;;;;;;5056979;28;20032;-71
2022/08/26 05:33:24;;;;;;;4.75;0.90;;;22.20;99.90;;;;;;5051794;28;20039;-71
2022/08/26 05:35:49;;;;;;;3.28;1.25;;;21.40;99.90;;;;;;5051716;28;20029;-71
2022/08/26 05:38:19;;;;;;;3.60;0.98;;;21.40;99.90;;;;;;5051221;28;20577;-71
2022/08/26 05:40:49;;;;;;;8.85;1.42;;;21.90;99.90;;;;;;5051847;28;20025;-70
2022/08/26 05:43:15;;;;;;;4.03;1.13;;;21.60;99.90;;;;;;5051779;28;20055;-70
2022/08/26 05:45:50;;;;;;;8.27;1.38;;;21.60;99.90;;;;;;5053376;28;20045;-70
2022/08/26 05:48:17;;;;;;;6.78;1.50;;;21.60;99.90;;;;;;5048579;28;20032;-71
2022/08/26 05:50:48;;;;;;;4.82;1.13;;;21.60;99.90;;;;;;5051372;28;20055;-70
2022/08/26 05:53:17;;;;;;;4.07;1.02;;;21.60;99.90;;;;;;5051347;28;20501;-71
2022/08/26 05:55:46;;;;;;;5.03;0.93;;;21.60;99.90;;;;;;5051550;28;20017;-70
2022/08/26 05:58:12;;;;;;;3.53;1.00;;;21.60;99.90;;;;;;5051421;28;20466;-70
2022/08/26 06:00:39;;;;;;;7.43;0.85;;;21.40;99.90;;;;;;5050839;28;20132;-70
2022/08/26 06:03:06;;;;;;;4.47;0.90;;;21.60;99.90;;;;;;5051562;28;20462;-71
2022/08/26 06:05:37;;;;;;;7.75;1.05;;;21.70;99.90;;;;;;5050708;28;20032;-70
2022/08/26 06:08:21;;;;;;;3.20;0.88;;;22.50;99.90;;;;;;5051670;28;20013;-70
2022/08/26 06:10:46;;;;;;;;;;;21.70;99.90;;;;;;5052189;28;20040;-70
2022/08/26 06:13:13;;;;;;;4.43;0.98;;;21.70;99.90;;;;;;5067321;28;19904;-70
2022/08/26 06:15:44;;;;;;;5.90;1.40;;;21.60;99.90;;;;;;5063811;28;20027;-71
2022/08/26 06:18:10;;;;;;;2.45;1.13;;;21.70;99.90;;;;;;5050766;28;20036;-71
2022/08/26 06:20:36;;;;;;;7.47;1.45;;;21.70;99.90;;;;;;5050802;28;20021;-71
2022/08/26 06:25:47;;;;;;;6.13;1.23;;;21.70;99.90;;;;;;5051489;28;20060;-71
2022/08/26 06:28:14;;;;;;;4.93;1.35;;;21.90;99.90;;;;;;5045812;28;20052;-71
2022/08/26 06:30:40;;;;;;;3.95;0.85;;;21.80;99.90;;;;;;5051011;28;20382;-71
2022/08/26 06:33:07;;;;;;;5.22;0.98;;;21.70;99.90;;;;;;5050748;28;20044;-70
2022/08/26 06:35:40;;;;;;;6.00;1.10;;;22.50;99.90;;;;;;5048732;28;20029;-69
2022/08/26 06:38:07;;;;;;;7.45;1.42;;;21.70;99.90;;;;;;5048634;28;20139;-70
2022/08/26 06:40:39;;;;;;;5.28;1.60;;;21.70;99.90;;;;;;5057583;28;20037;-70
2022/08/26 06:43:05;;;;;;;6.97;1.27;;;21.70;99.90;;;;;;5065197;28;20527;-70
2022/08/26 06:45:30;;;;;;;3.95;1.52;;;21.70;99.90;;;;;;5060378;28;20041;-70
2022/08/26 06:47:56;;;;;;;3.80;1.02;;;21.60;99.90;;;;;;5049631;28;20117;-70
2022/08/26 06:50:22;;;;;;;10.00;1.17;;;21.70;99.90;;;;;;5054806;28;20039;-70
2022/08/26 06:52:47;;;;;;;7.03;1.10;;;21.70;99.90;;;;;;5051487;28;20057;-70
2022/08/26 06:55:13;;;;;;;4.95;1.08;;;21.80;99.90;;;;;;5052321;28;20036;-70
2022/08/26 06:57:38;;;;;;;4.95;0.77;;;21.90;99.90;;;;;;5050185;28;20718;-69
2022/08/26 07:00:08;;;;;;;6.03;1.17;;;21.80;99.90;;;;;;5049196;28;20024;-69
2022/08/26 07:02:34;;;;;;;4.72;0.70;;;21.90;99.90;;;;;;5049067;28;20017;-70
2022/08/26 07:04:59;;;;;;;5.68;1.27;;;22.50;99.90;;;;;;5049229;28;20040;-70
2022/08/26 07:07:25;;;;;;;4.88;1.30;;;21.80;99.90;;;;;;5049020;28;20025;-70
2022/08/26 07:09:50;;;;;;;4.15;1.33;;;22.10;99.90;;;;;;5049442;28;20032;-70
2022/08/26 07:12:16;;;;;;;6.70;0.95;;;22.10;99.90;;;;;;5048227;28;20167;-70
2022/08/26 07:14:42;;;;;;;3.40;0.88;;;22.10;99.90;;;;;;5049178;28;20074;-70
2022/08/26 07:17:07;;;;;;;5.15;1.10;;;22.10;99.90;;;;;;5048466;28;20033;-70
2022/08/26 07:19:33;;;;;;;6.10;1.60;;;22.00;99.90;;;;;;5051491;28;20089;-70
2022/08/26 07:22:04;;;;;;;7.75;1.33;;;22.20;99.90;;;;;;5052749;28;20013;-70
2022/08/26 07:24:32;;;;;;;6.40;1.13;;;22.30;99.90;;;;;;5051743;28;20044;-69
2022/08/26 07:27:02;;;;;;;4.50;1.02;;;22.20;99.90;;;;;;5047488;28;20408;-70
2022/08/26 07:29:28;;;;;;;5.55;1.15;;;22.20;99.90;;;;;;5043332;28;20021;-70
2022/08/26 07:31:54;;;;;;;5.20;0.90;;;22.40;99.80;;;;;;5043444;28;20048;-70
2022/08/26 07:34:21;;;;;;;5.45;1.35;;;22.00;99.70;;;;;;5047913;28;20436;-70
2022/08/26 07:36:47;;;;;;;5.97;1.63;;;22.50;99.70;;;;;;5050450;28;20059;-71
2022/08/26 07:39:13;;;;;;;3.80;0.88;;;22.40;99.60;;;;;;5047990;28;20029;-70
2022/08/26 07:41:38;;;;;;;3.72;1.17;;;22.60;99.60;;;;;;5059430;28;20021;-70
2022/08/26 07:44:04;;;;;;;5.68;1.63;;;22.70;99.40;;;;;;5048770;28;20112;-70
2022/08/26 07:46:29;;;;;;;5.22;1.15;;;22.80;99.20;;;;;;5048060;28;20110;-70
2022/08/26 07:48:55;;;;;;;6.35;1.08;;;22.80;99.00;;;;;;5057016;28;20028;-70
2022/08/26 07:51:21;;;;;;;8.25;1.42;;;22.70;98.80;;;;;;5048741;28;20072;-69
2022/08/26 07:53:47;;;;;;;2.58;1.20;;;22.80;98.90;;;;;;5048596;28;20025;-70
2022/08/26 07:56:14;;;;;;;6.85;0.98;;;22.70;98.90;;;;;;5047719;28;20120;-71
2022/08/26 07:58:39;;;;;;;5.13;0.75;;;23.60;98.90;;;;;;5048288;28;20025;-71
2022/08/26 08:01:06;;;;;;;6.15;0.70;;;23.60;98.90;;;;;;5053524;28;20097;-71
2022/08/26 08:03:32;;;;;;;5.35;1.00;;;22.60;98.80;;;;;;5057755;28;20013;-70
2022/08/26 08:05:58;;;;;;;4.40;1.27;;;22.70;98.90;;;;;;5049579;28;20032;-71
2022/08/26 08:08:24;;;;;;;3.03;0.80;;;22.40;98.70;;;;;;5048336;28;20029;-70
2022/08/26 08:10:49;;;;;;;7.57;0.95;;;22.50;98.80;;;;;;5049248;28;20025;-71
2022/08/26 08:13:15;;;;;;;6.15;1.00;;;22.40;98.70;;;;;;5049399;28;20040;-71
2022/08/26 08:15:40;;;;;;;10.70;1.50;;;22.40;98.70;;;;;;5043675;28;20020;-71
2022/08/26 08:18:06;;;;;;;6.90;1.25;;;22.40;98.70;;;;;;5049769;28;20166;-71
2022/08/26 08:20:33;;;;;;;6.93;0.82;;;22.70;98.70;;;;;;5049227;28;20025;-71
2022/08/26 08:23:02;;;;;;;4.45;0.75;;;22.50;98.80;;;;;;5049558;28;20512;-71
2022/08/26 08:25:29;;;;;;;4.18;1.40;;;22.60;98.90;;;;;;5048813;28;20242;-71
2022/08/26 08:27:54;;;;;;;10.80;1.38;;;22.50;98.50;;;;;;5048722;28;20477;-71
2022/08/26 08:30:21;;;;;;;5.13;1.38;;;22.60;98.60;;;;;;5038891;28;20025;-71
2022/08/26 08:32:47;;;;;;;6.65;0.80;;;22.60;98.60;;;;;;5049501;28;20049;-70
2022/08/26 08:35:16;;;;;;;3.92;1.10;;;22.60;98.50;;;;;;5049067;28;20025;-69
2022/08/26 08:37:42;;;;;;;6.15;1.02;;;22.70;98.80;;;;;;5053768;28;20330;-71
2022/08/26 08:40:09;;;;;;;3.92;1.02;;;22.70;98.50;;;;;;5054171;28;20025;-70
2022/08/26 08:43:04;;;;;;;4.53;0.80;;;22.70;98.30;;;;;;5049068;28;20036;-70
2022/08/26 08:45:56;;;;;;;7.85;1.10;;;22.90;98.10;;;;;;5048844;28;20029;-71
2022/08/26 08:48:32;;;;;;;10.10;1.38;;;22.70;98.10;;;;;;5041382;28;20033;-71
2022/08/26 08:51:12;;;;;;;7.75;2.38;;;23.60;99.10;;;;;;5049106;28;20029;-70
2022/08/26 08:53:41;;;;;;;6.15;1.25;;;22.70;98.60;;;;;;5058593;28;20021;-70
2022/08/26 08:56:30;;;;;;;3.80;0.80;;;22.40;98.60;;;;;;5045523;28;20167;-71
2022/08/26 08:59:06;;;;;;;6.72;1.88;;;22.40;98.30;;;;;;5052320;28;20478;-71
2022/08/26 09:02:06;;;;;;;6.15;0.95;;;22.40;99.00;;;;;;5051946;28;20518;-71
2022/08/26 09:05:04;;;;;;;5.10;1.27;;;22.30;98.50;;;;;;5041990;28;20047;-71
2022/08/26 09:07:46;;;;;;;5.50;0.90;;;22.20;98.70;;;;;;5052373;28;20037;-71
2022/08/26 09:10:27;;;;;;;4.63;0.80;;;22.20;98.70;;;;;;5052295;28;20449;-71
2022/08/26 09:12:53;;;;;;;9.70;1.77;;;22.20;99.50;;;;;;5052621;28;20413;-71
2022/08/26 09:15:35;;;;;;;3.25;0.68;;;22.20;99.00;;;;;;5052039;28;20113;-71
2022/08/26 09:18:07;;;;;;;4.63;0.73;;;22.20;99.30;;;;;;5052521;28;20024;-71
2022/08/26 09:20:48;;;;;;;5.63;0.88;;;22.30;99.20;;;;;;5050664;28;20021;-71
2022/08/26 09:23:14;;;;;;;7.32;1.75;;;22.10;99.10;;;;;;5051418;28;20102;-71
2022/08/26 09:25:49;;;;;;;5.60;0.90;;;22.30;98.80;;;;;;5052379;28;20045;-71
2022/08/26 09:28:18;;;;;;;8.93;1.00;;;22.40;99.10;;;;;;5051715;28;20115;-71
2022/08/26 09:30:45;;;;;;;6.45;0.90;;;22.40;98.90;;;;;;5051986;28;20122;-70
2022/08/26 09:33:15;;;;;;;4.40;0.90;;;22.40;98.70;;;;;;5051803;28;20163;-71
2022/08/26 09:35:45;;;;;;;5.50;1.58;;;22.40;98.90;;;;;;5052373;28;20096;-70
2022/08/26 09:38:24;;;;;;;5.00;1.00;;;22.40;98.70;;;;;;5051396;28;20025;-70
2022/08/26 09:41:03;;;;;;;6.05;1.23;;;22.10;98.80;;;;;;5052185;28;20071;-71
2022/08/26 09:43:29;;;;;;;5.53;0.85;;;22.80;99.10;;;;;;5051593;28;20032;-70
2022/08/26 09:46:13;;;;;;;9.05;1.23;;;22.20;98.60;;;;;;5052106;28;20029;-70
2022/08/26 09:48:40;;;;;;;3.75;1.05;;;22.40;99.30;;;;;;5051936;28;20023;-71
2022/08/26 09:51:26;;;;;;;6.13;1.55;;;22.10;98.90;;;;;;5051370;28;20023;-71
2022/08/26 09:54:01;;;;;;;7.57;1.10;;;22.30;99.20;;;;;;5051446;28;20029;-73
2022/08/26 09:56:28;;;;;;;7.00;1.27;;;22.30;98.90;;;;;;5051350;28;20040;-72
2022/08/26 09:58:55;;;;;;;5.80;0.70;;;22.40;98.40;;;;;;5051438;28;20074;-72
2022/08/26 10:01:37;;;;;;;4.13;1.00;;;22.40;98.20;;;;;;5050871;28;20040;-72
2022/08/26 10:04:06;;;;;;;4.47;0.52;;;22.70;98.30;;;;;;5051759;28;20083;-72
2022/08/26 10:06:42;;;;;;;5.25;0.80;;;22.70;98.00;;;;;;5053734;28;20025;-72
2022/08/26 10:09:12;;;;;;;3.17;0.82;;;22.90;97.20;;;;;;5051948;28;20028;-72
2022/08/26 10:11:56;;;;;;;5.68;1.00;;;22.90;97.80;;;;;;5067672;28;20024;-72
2022/08/26 10:14:40;;;;;;;4.60;0.93;;;23.00;97.20;;;;;;5061238;28;20027;-73
2022/08/26 10:17:23;;;;;;;4.88;1.02;;;22.90;97.10;;;;;;5053920;28;20036;-72
2022/08/26 10:19:55;;;;;;;8.60;0.75;;;22.90;97.20;;;;;;5060060;28;20017;-72
2022/08/26 10:22:38;;;;;;;4.50;0.93;;;22.70;97.90;;;;;;5049448;28;20020;-73
2022/08/26 10:25:08;;;;;;;6.83;1.13;;;22.70;96.90;;;;;;5056390;28;20311;-73
2022/08/26 10:27:42;;;;;;;7.68;0.90;;;22.80;97.60;;;;;;5061156;28;20268;-73
2022/08/26 10:30:17;;;;;;;8.00;1.35;;;22.80;97.20;;;;;;5050543;28;20033;-73
2022/08/26 10:32:49;;;;;;;5.15;0.98;;;22.70;97.70;;;;;;5051220;28;20017;-73
2022/08/26 10:35:16;;;;;;;7.47;1.20;;;22.90;97.60;;;;;;5050487;28;20033;-72
2022/08/26 10:37:49;;;;;;;5.57;1.27;;;23.10;97.30;;;;;;5050950;28;20026;-72
2022/08/26 10:40:29;;;;;;;8.80;1.73;;;23.10;97.20;;;;;;5057208;28;20021;-72
2022/08/26 10:43:08;;;;;;;6.03;0.80;;;23.00;96.30;;;;;;5066421;28;20025;-72
2022/08/26 10:45:37;;;;;;;7.07;1.00;;;22.90;97.10;;;;;;5049293;28;20033;-72
2022/08/26 10:48:10;;;;;;;4.75;0.55;;;22.80;97.00;;;;;;5050714;28;20084;-72
2022/08/26 10:50:40;;;;;;;4.95;0.77;;;22.70;97.20;;;;;;5052984;28;20056;-72
2022/08/26 10:53:30;;;;;;;4.22;0.80;;;23.10;97.20;;;;;;5055992;28;20470;-72
2022/08/26 10:56:06;;;;;;;2.35;0.70;;;22.90;96.60;;;;;;5048651;28;20027;-71
2022/08/26 10:58:43;;;;;;;2.95;1.00;;;22.90;96.40;;;;;;5050323;28;20461;-72
2022/08/26 11:01:41;;;;;;;4.45;0.73;;;23.00;96.50;;;;;;5050282;28;20110;-74
2022/08/26 11:04:28;;;;;;;5.35;0.60;;;23.10;96.40;;;;;;5049484;28;20040;-72
2022/08/26 11:07:31;;;;;;;3.30;0.50;;;22.80;96.30;;;;;;5049824;28;20029;-72
2022/08/26 11:09:59;;;;;;;5.07;0.73;;;22.90;96.50;;;;;;5050421;28;20041;-72
2022/08/26 11:12:37;;;;;;;2.80;0.77;;;22.80;97.00;;;;;;5045621;28;20046;-71
2022/08/26 11:15:12;;;;;;;3.35;0.60;;;23.00;96.50;;;;;;5050558;28;20024;-71
2022/08/26 11:17:43;;;;;;;10.93;1.00;;;22.50;97.00;;;;;;5049742;28;20040;-72
2022/08/26 11:20:21;;;;;;;4.43;0.90;;;22.50;97.00;;;;;;5049920;28;20025;-71
2022/08/26 11:22:47;;;;;;;6.85;0.93;;;22.40;97.10;;;;;;5049868;28;20037;-72
2022/08/26 11:25:15;;;;;;;6.55;0.60;;;22.40;96.70;;;;;;5055139;28;20120;-72
2022/08/26 11:27:40;;;;;;;4.15;0.60;;;22.50;96.80;;;;;;5049959;28;20114;-72
2022/08/26 11:30:12;;;;;;;4.38;0.80;;;22.60;96.60;;;;;;5048600;28;20068;-72
2022/08/26 11:32:40;;;;;;;5.53;0.90;;;22.80;96.90;;;;;;5049288;28;20037;-70
2022/08/26 11:35:15;;;;;;;3.00;0.68;;;22.70;95.60;;;;;;5049675;28;20049;-69
2022/08/26 11:37:47;;;;;;;3.13;0.77;;;22.70;95.60;;;;;;5050067;28;20104;-70
2022/08/26 11:40:23;;;;;;;3.90;0.50;;;23.90;96.90;;;;;;5049286;28;20029;-70
2022/08/26 11:42:54;;;;;;;3.70;0.65;;;22.60;95.80;;;;;;5049730;28;20028;-70
2022/08/26 11:45:38;;;;;;;2.67;0.73;;;22.50;96.50;;;;;;5049623;28;20029;-70
2022/08/26 11:48:16;;;;;;;;;;;22.50;95.90;;;;;;5049723;28;20028;-70
2022/08/26 11:51:10;;;;;;;3.22;0.50;;;22.50;96.10;;;;;;5055091;28;19915;-70
2022/08/26 11:53:38;;;;;;;2.90;0.63;;;22.40;95.90;;;;;;5049743;28;20029;-70
2022/08/26 11:56:24;;;;;;;5.28;0.68;;;22.40;96.40;;;;;;5049629;28;20154;-70
2022/08/26 11:58:53;;;;;;;4.10;0.85;;;22.40;96.60;;;;;;5045773;28;20033;-70
2022/08/26 12:01:41;;;;;;;3.55;0.50;;;22.30;96.40;;;;;;5053180;28;20049;-70
2022/08/26 12:04:12;;;;;;;7.32;0.80;;;22.40;95.90;;;;;;5049451;28;20123;-70
2022/08/26 12:06:45;;;;;;;2.70;0.47;;;22.50;96.60;;;;;;5049995;28;20048;-70
2022/08/26 12:09:20;;;;;;;4.32;0.82;;;22.40;96.40;;;;;;5049045;28;20082;-70
2022/08/26 12:11:46;;;;;;;3.85;0.85;;;22.40;95.70;;;;;;5049874;28;20037;-69
2022/08/26 12:14:24;;;;;;;4.38;0.60;;;22.40;96.10;;;;;;5049280;28;20371;-70
2022/08/26 12:16:50;;;;;;;1.35;0.40;;;22.30;96.40;;;;;;5049312;28;20478;-70
2022/08/26 12:19:31;;;;;;;2.17;0.50;;;22.30;96.20;;;;;;5048997;28;20788;-70
2022/08/26 12:22:05;;;;;;;3.35;0.60;;;22.30;96.60;;;;;;5048104;28;20135;-70
2022/08/26 12:24:31;;;;;;;3.45;1.17;;;22.30;96.40;;;;;;5049410;28;20033;-70
2022/08/26 12:27:19;;;;;;;2.85;0.75;;;22.20;95.90;;;;;;5050510;28;20390;-70
2022/08/26 12:29:58;;;;;;;2.83;0.50;;;22.30;95.60;;;;;;5067030;28;20025;-69
2022/08/26 12:32:23;;;;;;;1.35;0.40;;;22.20;95.90;;;;;;5062284;28;20032;-71
2022/08/26 12:34:49;;;;;;;2.70;0.50;;;22.10;95.80;;;;;;5071785;28;20477;-70
2022/08/26 12:37:15;;;;;;;2.72;0.70;;;22.40;95.80;;;;;;5059821;28;20032;-70
2022/08/26 12:39:43;;;;;;;2.65;0.50;;;22.60;95.60;;;;;;5064540;28;20035;-70
2022/08/26 12:42:11;;;;;;;2.35;0.85;;;22.80;95.50;;;;;;5071010;28;20032;-70
2022/08/26 12:44:57;;;;;;;3.75;0.40;;;22.80;95.20;;;;;;5069749;28;20040;-70
2022/08/26 12:47:24;;;;;;;3.70;0.52;;;23.10;94.10;;;;;;5057971;28;20107;-70
2022/08/26 12:50:11;;;;;;;5.88;0.60;;;23.70;94.40;;;;;;5070294;28;20085;-69
2022/08/26 12:52:56;;;;;;;3.65;0.60;;;23.30;93.60;;;;;;5067737;28;20104;-70
2022/08/26 12:55:36;;;;;;;4.97;0.50;;;23.50;94.30;;;;;;5069394;28;20107;-70
2022/08/26 12:58:20;;;;;;;2.53;0.30;;;23.30;93.60;;;;;;5069925;28;20090;-70
2022/08/26 13:00:49;;;;;;;4.28;0.98;;;23.30;94.40;;;;;;5066737;28;20765;-71
2022/08/26 13:03:32;;;;;;;2.13;0.40;;;23.30;94.60;;;;;;5069812;28;20043;-71